createdAt,value
2019-03-28T00:01:58.628Z,7.74
2019-03-28T00:04:24.556Z,7.77
2019-03-28T00:06:50.508Z,7.76
2019-03-28T00:09:16.340Z,7.74
2019-03-28T00:11:42.229Z,7.62
2019-03-28T00:14:08.052Z,7.50
2019-03-28T00:16:33.899Z,7.54
2019-03-28T00:18:59.787Z,7.48
2019-03-28T00:21:26.290Z,7.49
2019-03-28T00:23:59.891Z,7.44
2019-03-28T00:26:30.558Z,7.36
2019-03-28T00:28:53.609Z,7.28
2019-03-28T00:32:09.074Z,7.34
2019-03-28T00:34:35.361Z,7.28
2019-03-28T00:37:01.403Z,7.33
2019-03-28T00:39:27.379Z,7.36
2019-03-28T00:41:53.217Z,7.29
2019-03-28T00:44:19.160Z,7.16
2019-03-28T00:46:45.741Z,7.16
2019-03-28T00:49:11.940Z,7.17
2019-03-28T00:51:37.771Z,7.26
2019-03-28T00:54:03.645Z,7.22
2019-03-28T00:56:42.701Z,7.32
2019-03-28T00:58:57.379Z,7.30
2019-03-28T01:01:23.292Z,7.24
2019-03-28T01:03:49.125Z,7.21
2019-03-28T01:06:15.104Z,7.22
2019-03-28T01:08:41.094Z,7.27
2019-03-28T01:11:06.934Z,7.21
2019-03-28T01:13:32.770Z,7.30
2019-03-28T01:15:58.718Z,7.16
2019-03-28T01:18:24.613Z,7.32
2019-03-28T01:20:51.217Z,7.33
2019-03-28T01:23:17.305Z,7.37
2019-03-28T01:25:43.185Z,7.49
2019-03-28T01:28:09.005Z,7.44
2019-03-28T01:30:34.941Z,7.50
2019-03-28T01:33:01.723Z,7.52
2019-03-28T01:35:27.571Z,7.49
2019-03-28T01:37:54.369Z,7.63
2019-03-28T01:40:20.514Z,7.72
2019-03-28T01:42:46.361Z,7.84
2019-03-28T01:45:12.685Z,7.74
2019-03-28T01:47:38.677Z,7.84
2019-03-28T01:50:04.807Z,7.91
2019-03-28T01:52:30.681Z,7.90
2019-03-28T01:54:56.529Z,8.20
2019-03-28T01:57:22.380Z,7.91
2019-03-28T01:59:48.260Z,7.87
2019-03-28T02:02:14.085Z,7.84
2019-03-28T02:04:40.000Z,8.09
2019-03-28T02:07:05.885Z,8.05
2019-03-28T02:09:32.326Z,8.10
2019-03-28T02:11:58.355Z,8.81
2019-03-28T02:14:24.230Z,8.72
2019-03-28T02:16:50.173Z,8.67
2019-03-28T02:19:16.018Z,8.75
2019-03-28T02:21:41.847Z,8.71
2019-03-28T02:24:07.776Z,8.75
2019-03-28T02:26:34.243Z,8.74
2019-03-28T02:29:00.301Z,8.60
2019-03-28T02:31:26.138Z,8.21
2019-03-28T02:33:51.984Z,7.97
2019-03-28T02:36:17.870Z,8.05
2019-03-28T02:38:43.713Z,7.80
2019-03-28T02:41:09.567Z,7.74
2019-03-28T02:43:35.520Z,7.62
2019-03-28T02:46:01.349Z,7.46
2019-03-28T02:48:27.800Z,7.31
2019-03-28T02:50:53.949Z,7.43
2019-03-28T02:53:19.845Z,7.15
2019-03-28T02:55:45.689Z,7.12
2019-03-28T02:58:11.540Z,7.00
2019-03-28T03:00:37.391Z,6.92
2019-03-28T03:03:03.430Z,6.83
2019-03-28T03:05:29.406Z,6.98
2019-03-28T03:07:55.248Z,6.91
2019-03-28T03:10:21.116Z,6.87
2019-03-28T03:12:46.949Z,6.84
2019-03-28T03:15:13.392Z,6.68
2019-03-28T03:17:39.378Z,6.82
2019-03-28T03:20:05.924Z,6.77
2019-03-28T03:22:31.775Z,6.71
2019-03-28T03:24:57.676Z,6.70
2019-03-28T03:27:23.506Z,6.51
2019-03-28T03:29:49.446Z,6.58
2019-03-28T03:32:15.309Z,6.67
2019-03-28T03:34:41.200Z,6.59
2019-03-28T03:37:07.190Z,6.55
2019-03-28T03:39:33.017Z,6.52
2019-03-28T03:41:59.056Z,6.58
2019-03-28T03:44:24.959Z,6.41
2019-03-28T03:46:50.788Z,6.41
2019-03-28T03:49:18.658Z,6.41
2019-03-28T03:51:46.624Z,6.41
2019-03-28T03:54:12.519Z,6.36
2019-03-28T03:56:38.356Z,6.35
2019-03-28T03:59:04.297Z,6.36
2019-03-28T04:01:30.244Z,6.28
2019-03-28T04:03:56.297Z,6.15
2019-03-28T04:06:22.225Z,6.12
2019-03-28T04:08:48.103Z,6.02
2019-03-28T04:11:14.112Z,6.05
2019-03-28T04:13:40.033Z,5.99
2019-03-28T04:16:06.016Z,5.94
2019-03-28T04:18:31.946Z,5.94
2019-03-28T04:20:58.432Z,5.94
2019-03-28T04:23:24.335Z,5.95
2019-03-28T04:25:50.294Z,5.83
2019-03-28T04:28:30.846Z,5.84
2019-03-28T04:30:44.005Z,5.81
2019-03-28T04:33:09.905Z,5.82
2019-03-28T04:35:35.800Z,5.83
2019-03-28T04:38:01.705Z,5.81
2019-03-28T04:40:27.601Z,5.73
2019-03-28T04:42:53.495Z,5.71
2019-03-28T04:45:19.533Z,5.87
2019-03-28T04:47:45.450Z,5.85
2019-03-28T04:50:11.902Z,5.84
2019-03-28T04:52:37.819Z,5.81
2019-03-28T04:55:05.230Z,5.79
2019-03-28T04:57:31.237Z,5.78
2019-03-28T04:59:57.151Z,5.73
2019-03-28T05:02:23.033Z,5.76
2019-03-28T05:04:49.057Z,5.75
2019-03-28T05:07:14.942Z,5.68
2019-03-28T05:09:40.865Z,5.71
2019-03-28T05:12:06.738Z,5.63
2019-03-28T05:14:32.636Z,5.60
2019-03-28T05:16:58.575Z,5.56
2019-03-28T05:19:24.483Z,5.53
2019-03-28T05:21:50.403Z,5.78
2019-03-28T05:24:16.336Z,5.78
2019-03-28T05:26:42.241Z,5.65
2019-03-28T05:29:08.149Z,5.74
2019-03-28T05:31:34.412Z,6.01
2019-03-28T05:34:00.495Z,5.89
2019-03-28T05:36:26.692Z,5.86
2019-03-28T05:38:52.612Z,5.98
2019-03-28T05:41:18.511Z,5.94
2019-03-28T05:43:45.552Z,5.88
2019-03-28T05:46:11.702Z,5.81
2019-03-28T05:48:37.650Z,5.73
2019-03-28T05:51:03.761Z,5.88
2019-03-28T05:53:29.609Z,5.90
2019-03-28T05:55:55.444Z,6.04
2019-03-28T05:58:21.356Z,5.88
2019-03-28T06:00:51.150Z,6.03
2019-03-28T06:03:14.996Z,6.11
2019-03-28T06:05:40.863Z,6.04
2019-03-28T06:08:06.699Z,6.15
2019-03-28T06:10:32.562Z,6.37
2019-03-28T06:12:58.401Z,6.21
2019-03-28T06:15:26.142Z,6.28
2019-03-28T06:17:52.127Z,6.29
2019-03-28T06:20:18.055Z,6.39
2019-03-28T06:22:43.921Z,6.57
2019-03-28T06:25:09.900Z,6.49
2019-03-28T06:27:35.815Z,6.74
2019-03-28T06:30:02.610Z,6.77
2019-03-28T06:32:41.993Z,6.79
2019-03-28T06:34:56.285Z,7.05
2019-03-28T06:37:22.312Z,7.07
2019-03-28T06:39:48.169Z,7.15
2019-03-28T06:42:14.007Z,7.05
2019-03-28T06:44:39.886Z,7.31
2019-03-28T06:47:05.709Z,7.36
2019-03-28T06:49:31.654Z,7.38
2019-03-28T06:51:57.504Z,7.56
2019-03-28T06:54:24.463Z,7.64
2019-03-28T06:56:50.523Z,7.61
2019-03-28T06:59:16.563Z,7.70
2019-03-28T07:01:42.394Z,7.72
2019-03-28T07:04:08.358Z,7.93
2019-03-28T07:06:34.324Z,8.03
2019-03-28T07:09:00.138Z,8.04
2019-03-28T07:11:26.089Z,8.04
2019-03-28T07:13:51.927Z,8.06
2019-03-28T07:16:20.924Z,8.34
2019-03-28T07:18:45.550Z,8.29
2019-03-28T07:21:11.569Z,8.44
2019-03-28T07:23:37.446Z,8.68
2019-03-28T07:26:03.323Z,8.79
2019-03-28T07:28:29.189Z,8.84
2019-03-28T07:30:55.126Z,8.83
2019-03-28T07:33:21.145Z,9.18
2019-03-28T07:35:47.072Z,9.31
2019-03-28T07:38:12.899Z,9.27
2019-03-28T07:40:38.840Z,9.27
2019-03-28T07:43:04.762Z,9.59
2019-03-28T07:45:30.747Z,9.80
2019-03-28T07:47:56.587Z,9.81
2019-03-28T07:50:22.597Z,9.91
2019-03-28T07:52:48.568Z,9.91
2019-03-28T07:55:16.478Z,10.11
2019-03-28T07:57:42.312Z,10.19
2019-03-28T08:00:10.132Z,10.38
2019-03-28T08:02:35.959Z,10.57
2019-03-28T08:05:03.820Z,10.56
2019-03-28T08:07:29.774Z,10.45
2019-03-28T08:09:55.606Z,10.77
2019-03-28T08:12:23.228Z,10.85
2019-03-28T08:14:49.195Z,10.83
2019-03-28T08:17:15.093Z,11.11
2019-03-28T08:19:41.681Z,11.28
2019-03-28T08:22:07.606Z,11.41
2019-03-28T08:24:33.487Z,11.35
2019-03-28T08:26:59.310Z,11.46
2019-03-28T08:29:25.259Z,11.51
2019-03-28T08:31:52.762Z,11.51
2019-03-28T08:34:18.885Z,11.57
2019-03-28T08:36:45.633Z,11.64
2019-03-28T08:39:11.535Z,11.69
2019-03-28T08:41:37.381Z,11.52
2019-03-28T08:44:03.432Z,11.76
2019-03-28T08:46:29.435Z,11.59
2019-03-28T08:48:55.254Z,11.78
2019-03-28T08:51:21.243Z,12.04
2019-03-28T08:53:47.097Z,12.04
2019-03-28T08:56:12.955Z,11.93
2019-03-28T08:58:38.779Z,11.98
2019-03-28T09:01:05.884Z,11.96
2019-03-28T09:03:32.107Z,12.13
2019-03-28T09:05:57.942Z,11.79
2019-03-28T09:08:23.810Z,12.12
2019-03-28T09:10:49.640Z,12.45
2019-03-28T09:13:15.601Z,11.89
2019-03-28T09:15:44.114Z,12.40
2019-03-28T09:18:09.732Z,12.28
2019-03-28T09:20:35.586Z,12.50
2019-03-28T09:23:01.562Z,12.80
2019-03-28T09:25:27.480Z,12.32
2019-03-28T09:27:53.412Z,12.13
2019-03-28T09:30:48.095Z,12.69
2019-03-28T09:33:05.433Z,12.18
2019-03-28T09:35:31.504Z,12.18
2019-03-28T09:37:57.501Z,11.77
2019-03-28T09:40:23.461Z,12.20
2019-03-28T09:42:49.498Z,12.70
2019-03-28T09:45:15.579Z,12.76
2019-03-28T09:47:41.508Z,12.44
2019-03-28T09:50:07.875Z,12.86
2019-03-28T09:52:33.735Z,12.90
2019-03-28T09:54:59.662Z,12.71
2019-03-28T09:57:25.500Z,12.93
2019-03-28T09:59:51.548Z,12.97
2019-03-28T10:02:17.426Z,12.87
2019-03-28T10:04:43.254Z,12.98
2019-03-28T10:07:09.156Z,13.37
2019-03-28T10:09:35.450Z,13.16
2019-03-28T10:12:01.474Z,13.20
2019-03-28T10:14:27.442Z,13.53
2019-03-28T10:16:53.276Z,12.44
2019-03-28T10:19:19.329Z,12.98
2019-03-28T10:21:45.255Z,13.22
2019-03-28T10:24:11.623Z,13.63
2019-03-28T10:26:37.737Z,13.47
2019-03-28T10:29:03.731Z,13.23
2019-03-28T10:31:29.749Z,13.33
2019-03-28T10:33:55.696Z,12.87
2019-03-28T10:36:21.575Z,13.01
2019-03-28T10:38:47.470Z,13.20
2019-03-28T10:41:13.382Z,13.10
2019-03-28T10:43:39.352Z,12.84
2019-03-28T10:46:05.363Z,13.00
2019-03-28T10:48:31.409Z,13.55
2019-03-28T10:50:57.395Z,14.01
2019-03-28T10:53:29.825Z,13.88
2019-03-28T10:55:54.362Z,13.17
2019-03-28T10:58:20.482Z,13.67
2019-03-28T11:00:46.496Z,13.75
2019-03-28T11:03:12.469Z,13.39
2019-03-28T11:05:38.422Z,13.77
2019-03-28T11:08:04.430Z,13.05
2019-03-28T11:10:30.734Z,13.63
2019-03-28T11:12:56.752Z,13.45
2019-03-28T11:15:22.856Z,13.43
2019-03-28T11:17:48.933Z,13.68
2019-03-28T11:20:15.047Z,14.01
2019-03-28T11:22:41.022Z,13.46
2019-03-28T11:25:07.152Z,13.80
2019-03-28T11:27:33.258Z,13.99
2019-03-28T11:29:59.547Z,14.33
2019-03-28T11:32:25.656Z,14.72
2019-03-28T11:34:51.657Z,14.52
2019-03-28T11:37:26.068Z,15.01
2019-03-28T11:39:46.641Z,15.23
2019-03-28T11:42:12.895Z,14.26
2019-03-28T11:44:38.763Z,13.71
2019-03-28T11:47:04.608Z,13.98
2019-03-28T11:49:30.522Z,13.60
2019-03-28T11:51:56.565Z,13.46
2019-03-28T11:54:22.529Z,13.75
2019-03-28T11:56:48.538Z,14.09
2019-03-28T11:59:14.484Z,14.22
2019-03-28T12:01:40.412Z,13.61
2019-03-28T12:04:06.335Z,13.80
2019-03-28T12:06:32.368Z,14.38
2019-03-28T12:08:58.210Z,14.46
2019-03-28T12:11:24.102Z,14.41
2019-03-28T12:13:50.041Z,13.85
2019-03-28T12:16:16.995Z,14.37
2019-03-28T12:18:43.167Z,13.78
2019-03-28T12:21:09.237Z,14.62
2019-03-28T12:23:35.128Z,15.12
2019-03-28T12:26:01.150Z,15.20
2019-03-28T12:28:27.223Z,16.31
2019-03-28T12:30:53.115Z,14.66
2019-03-28T12:33:19.318Z,16.25
2019-03-28T12:35:45.184Z,15.39
2019-03-28T12:38:11.089Z,14.85
2019-03-28T12:40:37.036Z,14.70
2019-03-28T12:43:03.050Z,16.85
2019-03-28T12:45:29.035Z,15.87
2019-03-28T12:47:54.876Z,16.30
2019-03-28T12:50:20.870Z,17.03
2019-03-28T12:52:46.816Z,15.98
2019-03-28T12:55:12.962Z,15.46
2019-03-28T12:57:38.891Z,16.18
2019-03-28T13:00:06.850Z,16.98
2019-03-28T13:02:33.017Z,17.85
2019-03-28T13:04:59.165Z,18.11
2019-03-28T13:07:25.607Z,18.83
2019-03-28T13:09:51.713Z,21.34
2019-03-28T13:12:17.651Z,24.21
2019-03-28T13:14:43.462Z,22.01
2019-03-28T13:17:09.453Z,23.42
2019-03-28T13:19:35.366Z,24.58
2019-03-28T13:22:02.435Z,21.80
2019-03-28T13:24:28.684Z,21.41
2019-03-28T13:26:54.579Z,22.36
2019-03-28T13:29:20.696Z,22.84
2019-03-28T13:31:46.616Z,21.85
2019-03-28T13:34:12.462Z,23.66
2019-03-28T13:36:38.391Z,23.14
2019-03-28T13:39:05.192Z,23.97
2019-03-28T13:41:31.308Z,23.65
2019-03-28T13:43:57.504Z,23.92
2019-03-28T13:46:23.437Z,24.15
2019-03-28T13:48:49.285Z,21.63
2019-03-28T13:51:15.145Z,22.07
2019-03-28T13:53:41.075Z,22.96
2019-03-28T13:56:07.003Z,21.32
2019-03-28T13:58:32.953Z,27.10
2019-03-28T14:00:59.008Z,27.08
2019-03-28T14:03:26.730Z,28.06
2019-03-28T14:05:52.664Z,26.05
2019-03-28T14:08:18.609Z,25.87
2019-03-28T14:10:44.783Z,24.14
2019-03-28T14:13:10.715Z,22.22
2019-03-28T14:15:36.649Z,21.70
2019-03-28T14:18:02.786Z,24.33
2019-03-28T14:20:28.796Z,21.20
2019-03-28T14:22:54.760Z,20.42
2019-03-28T14:25:20.825Z,19.86
2019-03-28T14:27:46.940Z,20.44
2019-03-28T14:30:12.982Z,21.10
2019-03-28T14:32:52.121Z,21.10
2019-03-28T14:35:06.868Z,23.13
2019-03-28T14:37:32.901Z,20.37
2019-03-28T14:39:59.102Z,19.98
2019-03-28T14:42:25.063Z,19.62
2019-03-28T14:44:50.993Z,22.64
2019-03-28T14:47:16.894Z,24.12
2019-03-28T14:49:42.891Z,23.05
2019-03-28T14:52:09.104Z,23.92
2019-03-28T14:54:35.165Z,21.66
2019-03-28T14:57:01.786Z,24.60
2019-03-28T14:59:32.687Z,23.90
2019-03-28T15:01:55.729Z,22.47
2019-03-28T15:04:21.630Z,24.13
2019-03-28T15:06:47.678Z,22.89
2019-03-28T15:09:13.553Z,22.69
2019-03-28T15:11:39.569Z,24.54
2019-03-28T15:14:05.587Z,21.36
2019-03-28T15:16:31.489Z,24.12
2019-03-28T15:18:57.405Z,25.24
2019-03-28T15:21:23.463Z,24.00
2019-03-28T15:23:49.329Z,24.04
2019-03-28T15:26:15.321Z,20.00
2019-03-28T15:28:41.229Z,20.59
2019-03-28T15:31:07.339Z,22.98
2019-03-28T15:33:39.317Z,24.33
2019-03-28T15:36:01.125Z,26.13
2019-03-28T15:38:27.065Z,22.21
2019-03-28T15:40:52.980Z,25.22
2019-03-28T15:43:18.903Z,23.22
2019-03-28T15:45:44.832Z,22.51
2019-03-28T15:48:11.002Z,24.42
2019-03-28T15:50:36.895Z,21.07
2019-03-28T15:53:02.925Z,21.03
2019-03-28T15:55:28.911Z,22.65
2019-03-28T15:57:54.815Z,21.33
2019-03-28T16:00:20.951Z,19.10
2019-03-28T16:02:46.905Z,19.66
2019-03-28T16:05:12.890Z,20.00
2019-03-28T16:07:38.741Z,19.50
2019-03-28T16:10:09.751Z,19.35
2019-03-28T16:12:35.848Z,18.94
2019-03-28T16:15:03.147Z,18.08
2019-03-28T16:17:29.247Z,19.09
2019-03-28T16:19:55.235Z,17.07
2019-03-28T16:22:21.214Z,17.83
2019-03-28T16:24:47.128Z,18.21
2019-03-28T16:27:13.136Z,18.03
2019-03-28T16:29:39.198Z,18.07
2019-03-28T16:32:05.196Z,19.69
2019-03-28T16:34:31.082Z,19.00
2019-03-28T16:36:57.069Z,18.44
2019-03-28T16:39:22.992Z,18.67
2019-03-28T16:41:49.629Z,18.36
2019-03-28T16:44:15.954Z,19.88
2019-03-28T16:46:41.970Z,17.22
2019-03-28T16:49:08.287Z,16.96
2019-03-28T16:51:34.486Z,17.48
2019-03-28T16:54:01.599Z,17.65
2019-03-28T16:56:28.087Z,16.65
2019-03-28T16:58:55.526Z,16.31
2019-03-28T17:01:21.985Z,15.77
2019-03-28T17:03:47.895Z,16.72
2019-03-28T17:06:13.986Z,17.67
2019-03-28T17:08:44.077Z,16.30
2019-03-28T17:11:12.176Z,15.59
2019-03-28T17:13:38.141Z,14.93
2019-03-28T17:16:04.284Z,15.03
2019-03-28T17:18:31.274Z,14.78
2019-03-28T17:20:57.619Z,14.45
2019-03-28T17:23:23.683Z,14.50
2019-03-28T17:25:49.612Z,14.32
2019-03-28T17:28:15.712Z,14.30
2019-03-28T17:30:41.956Z,14.22
2019-03-28T17:33:07.863Z,14.24
2019-03-28T17:35:33.773Z,14.15
2019-03-28T17:37:59.815Z,14.32
2019-03-28T17:40:25.747Z,14.09
2019-03-28T17:42:51.698Z,14.02
2019-03-28T17:45:17.615Z,14.03
2019-03-28T17:47:43.493Z,13.97
2019-03-28T17:50:09.877Z,13.94
2019-03-28T17:52:36.021Z,13.81
2019-03-28T17:55:03.676Z,13.81
2019-03-28T17:57:29.867Z,13.77
2019-03-28T17:59:55.765Z,13.75
2019-03-28T18:02:21.875Z,13.75
2019-03-28T18:04:48.417Z,13.71
2019-03-28T18:07:14.343Z,13.71
2019-03-28T18:09:40.438Z,13.61
2019-03-28T18:12:06.251Z,13.63
2019-03-28T18:14:32.224Z,13.54
2019-03-28T18:16:59.558Z,13.46
2019-03-28T18:19:25.559Z,13.47
2019-03-28T18:22:02.766Z,13.41
2019-03-28T18:24:19.766Z,13.39
2019-03-28T18:26:45.751Z,13.36
2019-03-28T18:29:11.690Z,13.31
2019-03-28T18:31:49.688Z,13.19
2019-03-28T18:34:05.520Z,13.16
2019-03-28T18:36:31.372Z,13.12
2019-03-28T18:38:57.459Z,13.31
2019-03-28T18:41:23.566Z,13.30
2019-03-28T18:43:49.861Z,12.87
2019-03-28T18:46:15.978Z,12.60
2019-03-28T18:48:42.030Z,12.63
2019-03-28T18:51:08.144Z,12.42
2019-03-28T18:53:34.106Z,12.21
2019-03-28T18:56:00.034Z,12.18
2019-03-28T18:58:25.955Z,12.13
2019-03-28T19:00:52.256Z,11.95
2019-03-28T19:03:18.291Z,11.97
2019-03-28T19:05:44.247Z,12.02
2019-03-28T19:08:10.179Z,11.95
2019-03-28T19:10:36.244Z,11.99
2019-03-28T19:13:04.618Z,11.87
2019-03-28T19:15:30.252Z,11.78
2019-03-28T19:17:56.160Z,11.70
2019-03-28T19:20:22.120Z,11.54
2019-03-28T19:22:50.177Z,11.45
2019-03-28T19:25:16.213Z,11.40
2019-03-28T19:27:42.215Z,11.36
2019-03-28T19:30:09.203Z,11.39
2019-03-28T19:32:35.279Z,11.25
2019-03-28T19:35:03.369Z,11.05
2019-03-28T19:37:30.029Z,11.01
2019-03-28T19:39:55.864Z,10.89
2019-03-28T19:42:22.655Z,10.84
2019-03-28T19:44:49.806Z,10.76
2019-03-28T19:47:15.634Z,10.77
2019-03-28T19:49:41.706Z,10.74
2019-03-28T19:52:07.694Z,10.66
2019-03-28T19:54:33.821Z,10.63
2019-03-28T19:56:59.861Z,10.67
2019-03-28T19:59:26.027Z,10.49
2019-03-28T20:01:52.271Z,10.56
2019-03-28T20:04:18.089Z,10.49
2019-03-28T20:06:44.206Z,10.42
2019-03-28T20:09:16.208Z,10.47
2019-03-28T20:11:39.020Z,10.48
2019-03-28T20:14:05.203Z,10.50
2019-03-28T20:16:31.161Z,10.53
2019-03-28T20:18:57.147Z,10.56
2019-03-28T20:21:23.128Z,10.64
2019-03-28T20:23:49.215Z,10.63
2019-03-28T20:26:15.137Z,10.62
2019-03-28T20:28:41.192Z,10.56
2019-03-28T20:31:07.280Z,10.49
2019-03-28T20:33:33.316Z,10.49
2019-03-28T20:36:18.857Z,10.39
2019-03-28T20:38:27.272Z,10.41
2019-03-28T20:40:53.234Z,10.34
2019-03-28T20:43:19.165Z,10.31
2019-03-28T20:45:45.397Z,10.36
2019-03-28T20:48:11.432Z,10.40
2019-03-28T20:50:37.444Z,10.26
2019-03-28T20:53:03.549Z,10.26
2019-03-28T20:55:29.548Z,10.31
2019-03-28T21:00:36.750Z,10.46
2019-03-28T21:03:03.397Z,10.35
2019-03-28T21:05:30.918Z,10.29
2019-03-28T21:07:57.033Z,10.34
2019-03-28T21:10:23.991Z,10.33
2019-03-28T21:12:50.350Z,10.29
2019-03-28T21:15:16.317Z,10.25
2019-03-28T21:17:42.290Z,10.08
2019-03-28T21:20:08.441Z,9.98
2019-03-28T21:22:34.385Z,9.90
2019-03-28T21:25:00.381Z,9.91
2019-03-28T21:27:26.287Z,9.76
2019-03-28T21:29:52.389Z,9.95
2019-03-28T21:32:18.895Z,9.83
2019-03-28T21:34:45.030Z,9.70
2019-03-28T21:37:11.194Z,9.71
2019-03-28T21:39:39.945Z,9.61
2019-03-28T21:42:07.208Z,9.78
2019-03-28T21:44:33.063Z,9.79
2019-03-28T21:46:59.105Z,9.74
2019-03-28T21:49:24.975Z,9.76
2019-03-28T21:51:50.967Z,9.65
2019-03-28T21:54:16.914Z,9.60
2019-03-28T21:56:42.876Z,9.47
2019-03-28T21:59:09.006Z,9.31
2019-03-28T22:01:34.909Z,9.10
2019-03-28T22:04:00.729Z,9.20
2019-03-28T22:06:26.725Z,9.14
2019-03-28T22:08:52.583Z,9.09
2019-03-28T22:11:18.817Z,9.06
2019-03-28T22:13:44.767Z,9.03
2019-03-28T22:16:10.645Z,9.05
2019-03-28T22:18:36.484Z,9.07
2019-03-28T22:21:02.468Z,9.14
2019-03-28T22:23:30.497Z,9.04
2019-03-28T22:25:56.488Z,9.11
2019-03-28T22:28:22.466Z,9.13
2019-03-28T22:30:48.638Z,9.02
2019-03-28T22:33:15.773Z,8.99
2019-03-28T22:35:41.812Z,8.94
2019-03-28T22:38:07.828Z,8.84
2019-03-28T22:40:33.822Z,8.84
2019-03-28T22:42:59.718Z,8.77
2019-03-28T22:45:25.801Z,8.70
2019-03-28T22:47:51.694Z,8.77
2019-03-28T22:50:17.529Z,8.77
2019-03-28T22:52:43.705Z,8.78
2019-03-28T22:55:10.274Z,8.80
2019-03-28T22:57:36.250Z,8.75
2019-03-28T23:00:05.973Z,8.78
2019-03-28T23:02:31.829Z,8.72
2019-03-28T23:04:57.763Z,8.70
2019-03-28T23:07:23.607Z,8.81
2019-03-28T23:09:49.822Z,8.68
2019-03-28T23:12:16.403Z,8.68
2019-03-28T23:14:42.368Z,8.67
2019-03-28T23:17:08.408Z,8.57
2019-03-28T23:19:34.316Z,8.65
2019-03-28T23:22:00.154Z,8.45
2019-03-28T23:24:26.099Z,8.51
2019-03-28T23:26:52.059Z,8.52
2019-03-28T23:29:18.084Z,8.61
2019-03-28T23:31:43.923Z,8.59
2019-03-28T23:34:09.833Z,8.48
2019-03-28T23:36:35.672Z,8.55
2019-03-28T23:39:01.845Z,8.52
2019-03-28T23:41:27.738Z,8.46
2019-03-28T23:43:53.651Z,8.54
2019-03-28T23:46:19.508Z,8.41
2019-03-28T23:48:45.605Z,8.35
2019-03-28T23:51:11.561Z,8.27
2019-03-28T23:53:37.621Z,8.27
2019-03-28T23:56:03.508Z,8.25
2019-03-28T23:58:29.447Z,8.25
